Time;durP1;ratioP1;P1;durP2;ratioP2;P2;SDS_P1;SDS_P2;PMS_P1;PMS_P2;Temp;Humidity;BMP_temperature;BMP_pressure;BME280_temperature;BME280_humidity;BME280_pressure;Samples;Min_cycle;Max_cycle;Signal;HPM_P1;HPM_P2
2023/10/19 00:00:38;;;;;;;80.60;52.25;;;;;;;;;;2073906;28;20046;-57
2023/10/19 00:01:39;;;;;;;81.65;52.92;;;;;;;;;;2074569;28;20033;-57
2023/10/19 00:02:40;;;;;;;78.28;50.22;;;;;;;;;;2074607;28;20058;-57
2023/10/19 00:03:41;;;;;;;77.60;48.83;;;;;;;;;;2074335;28;20041;-57
2023/10/19 00:04:41;;;;;;;82.70;52.13;;;;;;;;;;2074411;28;20048;-57
2023/10/19 00:05:42;;;;;;;79.63;48.38;;;;;;;;;;2074417;28;20475;-57
2023/10/19 00:06:44;;;;;;;76.28;50.10;;;;;;;;;;2074410;28;20402;-57
2023/10/19 00:07:46;;;;;;;82.07;52.17;;;;;;;;;;2074104;28;20034;-57
2023/10/19 00:08:46;;;;;;;81.53;53.22;;;;;;;;;;2073869;28;20042;-57
2023/10/19 00:09:52;;;;;;;82.22;53.80;;;;;;;;;;2074587;28;20381;-57
2023/10/19 00:11:40;;;;;;;79.28;53.03;;;;;;;;;;2074450;28;20397;-57
2023/10/19 00:12:16;;;;;;;86.05;55.40;;;;;;;;;;2067133;28;20504;-57
2023/10/19 00:13:19;;;;;;;83.85;54.03;;;;;;;;;;2074469;28;20041;-57
2023/10/19 00:14:20;;;;;;;83.07;52.70;;;;;;;;;;2074333;28;20041;-57
2023/10/19 00:15:23;;;;;;;85.85;53.83;;;;;;;;;;2074229;28;20030;-57
2023/10/19 00:16:29;;;;;;;78.20;50.58;;;;;;;;;;2073677;28;20062;-57
2023/10/19 00:17:32;;;;;;;76.18;44.33;;;;;;;;;;2073473;28;20049;-57
2023/10/19 00:18:34;;;;;;;84.03;52.03;;;;;;;;;;2074301;28;20046;-57
2023/10/19 00:19:39;;;;;;;73.47;44.17;;;;;;;;;;2074064;28;20049;-57
2023/10/19 00:21:50;;;;;;;78.65;44.78;;;;;;;;;;2074646;28;20025;-57
2023/10/19 00:22:52;;;;;;;85.32;52.88;;;;;;;;;;2074282;28;20404;-57
2023/10/19 00:23:56;;;;;;;80.25;52.47;;;;;;;;;;2074244;28;20050;-57
2023/10/19 00:24:59;;;;;;;79.35;50.58;;;;;;;;;;2074304;28;20053;-57
2023/10/19 00:25:59;;;;;;;74.55;44.90;;;;;;;;;;2074195;28;20033;-57
2023/10/19 00:27:15;;;;;;;76.97;48.20;;;;;;;;;;2074468;28;20119;-57
2023/10/19 00:28:18;;;;;;;70.65;47.25;;;;;;;;;;2073492;28;20049;-58
2023/10/19 00:29:31;;;;;;;77.93;49.80;;;;;;;;;;2073639;28;20038;-58
2023/10/19 00:30:35;;;;;;;75.38;49.90;;;;;;;;;;2074059;28;20050;-57
2023/10/19 00:31:40;;;;;;;79.72;50.47;;;;;;;;;;2074152;28;20042;-57
2023/10/19 00:32:40;;;;;;;75.75;47.30;;;;;;;;;;2073067;28;20355;-58
2023/10/19 00:33:41;;;;;;;71.32;44.60;;;;;;;;;;2073314;28;20050;-57
2023/10/19 00:34:50;;;;;;;77.32;50.58;;;;;;;;;;2074314;28;20034;-57
2023/10/19 00:35:57;;;;;;;76.00;48.88;;;;;;;;;;2073716;28;20045;-58
2023/10/19 00:37:07;;;;;;;75.00;49.88;;;;;;;;;;2066576;28;20030;-57
2023/10/19 00:39:27;;;;;;;74.07;47.03;;;;;;;;;;2074482;28;20048;-58
2023/10/19 00:40:36;;;;;;;70.75;48.03;;;;;;;;;;2073797;28;20100;-57
2023/10/19 00:41:37;;;;;;;78.38;50.47;;;;;;;;;;2072748;28;20057;-58
2023/10/19 00:42:45;;;;;;;74.22;48.83;;;;;;;;;;2065724;28;20099;-57
2023/10/19 00:43:46;;;;;;;77.07;47.45;;;;;;;;;;2073739;28;20494;-57
2023/10/19 00:44:50;;;;;;;74.53;46.50;;;;;;;;;;2074127;28;20037;-58
2023/10/19 00:45:52;;;;;;;75.25;48.08;;;;;;;;;;2073864;28;20116;-58
2023/10/19 00:47:03;;;;;;;76.13;49.17;;;;;;;;;;2064899;28;20494;-58
2023/10/19 00:48:04;;;;;;;77.57;48.95;;;;;;;;;;2073647;28;20037;-58
2023/10/19 00:49:09;;;;;;;70.60;48.90;;;;;;;;;;2073638;28;20478;-58
2023/10/19 00:50:17;;;;;;;82.65;51.75;;;;;;;;;;2072625;28;20498;-57
2023/10/19 00:52:31;;;;;;;78.40;50.13;;;;;;;;;;2066137;28;20049;-57
2023/10/19 00:53:34;;;;;;;78.25;49.80;;;;;;;;;;2066897;28;20062;-58
2023/10/19 00:54:36;;;;;;;84.13;52.13;;;;;;;;;;2066332;28;20039;-57
2023/10/19 00:55:37;;;;;;;86.45;50.63;;;;;;;;;;2072849;28;20046;-57
2023/10/19 00:56:41;;;;;;;77.05;50.58;;;;;;;;;;2072884;28;20494;-57
2023/10/19 00:57:41;;;;;;;78.75;48.97;;;;;;;;;;2073597;28;20038;-57
2023/10/19 00:58:46;;;;;;;73.38;47.13;;;;;;;;;;2073464;28;20033;-58
2023/10/19 00:59:49;;;;;;;72.38;47.03;;;;;;;;;;2073543;28;20413;-57
2023/10/19 01:00:54;;;;;;;78.05;48.10;;;;;;;;;;2073028;28;20038;-57
2023/10/19 01:02:05;;;;;;;77.88;49.70;;;;;;;;;;2065641;28;20491;-57
2023/10/19 01:03:05;;;;;;;79.07;48.53;;;;;;;;;;2073646;28;20506;-57
2023/10/19 01:04:07;;;;;;;88.03;52.92;;;;;;;;;;2072768;28;20050;-58
2023/10/19 01:05:08;;;;;;;81.95;50.88;;;;;;;;;;2072596;28;20050;-57
2023/10/19 01:06:14;;;;;;;85.30;51.42;;;;;;;;;;2074164;28;20034;-57
2023/10/19 01:07:21;;;;;;;81.60;48.78;;;;;;;;;;2073255;28;20046;-57
2023/10/19 01:08:31;;;;;;;88.28;53.13;;;;;;;;;;2073461;28;20076;-57
2023/10/19 01:09:35;;;;;;;89.82;52.80;;;;;;;;;;2073838;28;20030;-57
2023/10/19 01:10:36;;;;;;;83.30;51.45;;;;;;;;;;2073731;28;20034;-57
2023/10/19 01:11:37;;;;;;;77.05;48.20;;;;;;;;;;2073537;28;20053;-57
2023/10/19 01:12:40;;;;;;;80.45;52.55;;;;;;;;;;2073504;28;20402;-57
2023/10/19 01:13:44;;;;;;;85.80;52.47;;;;;;;;;;2073408;28;20030;-57
2023/10/19 01:14:45;;;;;;;72.70;46.72;;;;;;;;;;2072510;28;20045;-57
2023/10/19 01:15:49;;;;;;;84.63;53.83;;;;;;;;;;2073672;28;20030;-57
2023/10/19 01:16:49;;;;;;;87.43;51.75;;;;;;;;;;2073926;28;20042;-57
2023/10/19 01:17:56;;;;;;;84.05;52.60;;;;;;;;;;2073356;28;20041;-57
2023/10/19 01:18:58;;;;;;;82.00;51.13;;;;;;;;;;2074058;28;20038;-57
2023/10/19 01:19:59;;;;;;;81.82;51.58;;;;;;;;;;2073221;28;20057;-58
2023/10/19 01:21:04;;;;;;;80.05;49.72;;;;;;;;;;2074178;28;20076;-57
2023/10/19 01:22:05;;;;;;;78.40;50.83;;;;;;;;;;2074146;28;20665;-57
2023/10/19 01:24:16;;;;;;;85.85;53.60;;;;;;;;;;2073067;28;20060;-57
2023/10/19 01:25:17;;;;;;;85.32;48.85;;;;;;;;;;2065411;28;20047;-57
2023/10/19 01:26:22;;;;;;;74.70;45.45;;;;;;;;;;2073110;28;20394;-58
2023/10/19 01:27:23;;;;;;;65.65;41.42;;;;;;;;;;2072876;28;20054;-56
2023/10/19 01:29:45;;;;;;;64.88;40.33;;;;;;;;;;2073337;28;20064;-57
2023/10/19 01:30:51;;;;;;;65.00;42.25;;;;;;;;;;2074006;28;20041;-57
2023/10/19 01:32:15;;;;;;;54.88;36.17;;;;;;;;;;2074169;28;20490;-57
2023/10/19 01:33:15;;;;;;;61.58;38.85;;;;;;;;;;2073115;28;20426;-57
2023/10/19 01:34:19;;;;;;;56.05;34.15;;;;;;;;;;2073406;28;20517;-57
2023/10/19 01:35:20;;;;;;;54.95;36.17;;;;;;;;;;2073491;28;20050;-57
2023/10/19 01:37:22;;;;;;;53.45;34.40;;;;;;;;;;2072674;28;20060;-59
2023/10/19 01:38:23;;;;;;;49.13;34.63;;;;;;;;;;2072476;28;20100;-57
2023/10/19 01:39:25;;;;;;;47.58;32.05;;;;;;;;;;2073191;28;20049;-58
2023/10/19 01:40:30;;;;;;;46.80;31.73;;;;;;;;;;2073265;28;20049;-58
2023/10/19 01:41:30;;;;;;;46.22;30.27;;;;;;;;;;2072633;28;20049;-57
2023/10/19 01:42:34;;;;;;;53.08;33.60;;;;;;;;;;2073191;28;20049;-57
2023/10/19 01:43:36;;;;;;;49.50;33.88;;;;;;;;;;2073364;28;20026;-57
2023/10/19 01:44:38;;;;;;;45.42;31.15;;;;;;;;;;2072886;28;20049;-58
2023/10/19 01:45:38;;;;;;;45.45;32.33;;;;;;;;;;2064448;28;20196;-57
2023/10/19 01:46:39;;;;;;;49.78;33.95;;;;;;;;;;2073553;28;20030;-57
2023/10/19 01:47:40;;;;;;;47.15;31.85;;;;;;;;;;2073106;28;20087;-57
2023/10/19 01:48:41;;;;;;;44.97;31.27;;;;;;;;;;2064187;28;20041;-57
2023/10/19 01:49:45;;;;;;;47.13;33.40;;;;;;;;;;2072640;28;20041;-57
2023/10/19 01:50:47;;;;;;;47.97;33.35;;;;;;;;;;2073840;28;20030;-57
2023/10/19 01:51:47;;;;;;;48.70;32.40;;;;;;;;;;2073872;28;20030;-57
2023/10/19 01:52:48;;;;;;;46.17;33.35;;;;;;;;;;2073342;28;20046;-57
2023/10/19 01:53:49;;;;;;;48.38;32.50;;;;;;;;;;2073407;28;20041;-57
2023/10/19 01:54:58;;;;;;;46.45;32.05;;;;;;;;;;2072604;28;20038;-57
2023/10/19 01:55:59;;;;;;;;;;;;;;;;;;2073863;28;20030;-57
2023/10/19 01:56:59;;;;;;;45.58;31.08;;;;;;;;;;2064379;28;19910;-57
2023/10/19 01:58:00;;;;;;;47.90;31.40;;;;;;;;;;2073132;28;20038;-57
2023/10/19 01:59:01;;;;;;;52.03;33.55;;;;;;;;;;2073226;28;20053;-56
2023/10/19 02:00:11;;;;;;;52.30;34.10;;;;;;;;;;2064947;28;20445;-57
2023/10/19 02:02:14;;;;;;;48.60;32.35;;;;;;;;;;2073360;28;20046;-57
2023/10/19 02:03:16;;;;;;;46.78;31.02;;;;;;;;;;2073814;28;20044;-57
2023/10/19 02:04:17;;;;;;;49.15;33.17;;;;;;;;;;2073705;28;20390;-57
2023/10/19 02:05:18;;;;;;;47.95;32.35;;;;;;;;;;2073210;28;20046;-57
2023/10/19 02:06:20;;;;;;;50.33;33.28;;;;;;;;;;2073233;28;20508;-57
2023/10/19 02:07:21;;;;;;;52.75;34.72;;;;;;;;;;2073140;28;20470;-57
2023/10/19 02:08:25;;;;;;;54.45;34.60;;;;;;;;;;2072939;28;20046;-57
2023/10/19 02:09:32;;;;;;;52.05;34.75;;;;;;;;;;2072706;28;20053;-57
2023/10/19 02:10:34;;;;;;;51.38;34.42;;;;;;;;;;2073962;28;20050;-57
2023/10/19 02:11:37;;;;;;;49.00;33.45;;;;;;;;;;2073175;28;20056;-57
2023/10/19 02:12:41;;;;;;;45.60;28.67;;;;;;;;;;2064795;28;20039;-57
2023/10/19 02:13:45;;;;;;;50.72;33.80;;;;;;;;;;2065577;28;20034;-57
2023/10/19 02:14:46;;;;;;;52.50;32.95;;;;;;;;;;2072261;28;20049;-57
2023/10/19 02:15:47;;;;;;;47.80;32.15;;;;;;;;;;2072504;28;20046;-58
2023/10/19 02:16:51;;;;;;;48.45;32.22;;;;;;;;;;2073008;28;20386;-57
2023/10/19 02:17:54;;;;;;;45.67;32.40;;;;;;;;;;2073067;28;20029;-58
2023/10/19 02:18:54;;;;;;;46.35;32.35;;;;;;;;;;2073278;28;20038;-57
2023/10/19 02:19:55;;;;;;;49.00;30.85;;;;;;;;;;2072969;28;20042;-57
2023/10/19 02:20:56;;;;;;;50.85;31.00;;;;;;;;;;2073167;28;20512;-57
2023/10/19 02:21:58;;;;;;;45.35;30.83;;;;;;;;;;2072552;28;20042;-57
2023/10/19 02:23:03;;;;;;;51.83;32.95;;;;;;;;;;2073110;28;20064;-57
2023/10/19 02:24:04;;;;;;;49.35;32.08;;;;;;;;;;2072470;28;20049;-57
2023/10/19 02:25:05;;;;;;;40.25;26.88;;;;;;;;;;2072616;28;20054;-57
2023/10/19 02:26:07;;;;;;;43.88;29.25;;;;;;;;;;2073609;28;20030;-57
2023/10/19 02:27:09;;;;;;;44.20;28.85;;;;;;;;;;2073347;28;20046;-58
2023/10/19 02:28:09;;;;;;;49.78;32.17;;;;;;;;;;2073356;28;20057;-57
2023/10/19 02:29:10;;;;;;;52.03;33.97;;;;;;;;;;2073578;28;20034;-57
2023/10/19 02:30:11;;;;;;;43.22;29.92;;;;;;;;;;2073616;28;20048;-57
2023/10/19 02:31:15;;;;;;;47.10;29.17;;;;;;;;;;2072940;28;20433;-57
2023/10/19 02:32:18;;;;;;;42.90;25.42;;;;;;;;;;2072598;28;20373;-57
2023/10/19 02:33:19;;;;;;;51.97;35.13;;;;;;;;;;2072985;28;20049;-57
2023/10/19 02:34:20;;;;;;;42.97;29.05;;;;;;;;;;2072203;28;20096;-57
2023/10/19 02:35:21;;;;;;;52.88;33.58;;;;;;;;;;2073075;28;20068;-57
2023/10/19 02:36:22;;;;;;;49.17;30.88;;;;;;;;;;2073273;28;20042;-57
2023/10/19 02:37:25;;;;;;;44.55;28.35;;;;;;;;;;2072819;28;20054;-57
2023/10/19 02:38:25;;;;;;;45.30;29.15;;;;;;;;;;2073218;28;20045;-57
2023/10/19 02:39:29;;;;;;;49.97;32.60;;;;;;;;;;2073622;28;20382;-57
2023/10/19 02:40:31;;;;;;;54.25;36.55;;;;;;;;;;2073287;28;20050;-57
2023/10/19 02:41:35;;;;;;;53.58;32.78;;;;;;;;;;2073285;28;20470;-57
2023/10/19 02:42:36;;;;;;;56.85;34.40;;;;;;;;;;2073887;28;20038;-57
2023/10/19 02:43:37;;;;;;;58.60;33.90;;;;;;;;;;2072997;28;20037;-57
2023/10/19 02:44:38;;;;;;;56.28;33.67;;;;;;;;;;2072840;28;20505;-57
2023/10/19 02:45:39;;;;;;;64.90;39.58;;;;;;;;;;2073681;28;20076;-57
2023/10/19 02:46:41;;;;;;;57.70;35.30;;;;;;;;;;2073834;28;20380;-57
2023/10/19 02:47:43;;;;;;;58.53;33.55;;;;;;;;;;2073485;28;20041;-57
2023/10/19 02:48:44;;;;;;;60.42;35.03;;;;;;;;;;2072860;28;20367;-57
2023/10/19 02:49:51;;;;;;;58.92;33.35;;;;;;;;;;2072419;28;20038;-57
2023/10/19 02:50:54;;;;;;;62.55;36.97;;;;;;;;;;2066272;28;20038;-57
2023/10/19 02:51:55;;;;;;;71.80;42.78;;;;;;;;;;2074375;28;20038;-57
2023/10/19 02:52:58;;;;;;;57.05;35.00;;;;;;;;;;2075524;28;20447;-57
2023/10/19 02:54:02;;;;;;;52.42;32.13;;;;;;;;;;2074657;28;20042;-57
2023/10/19 02:55:04;;;;;;;67.13;39.10;;;;;;;;;;2074675;28;20045;-57
2023/10/19 02:56:12;;;;;;;64.05;40.28;;;;;;;;;;2074067;28;20042;-57
2023/10/19 02:57:13;;;;;;;63.83;41.05;;;;;;;;;;2066859;28;20050;-57
2023/10/19 02:58:14;;;;;;;62.60;39.15;;;;;;;;;;2073821;28;20064;-57
2023/10/19 02:59:15;;;;;;;58.97;39.03;;;;;;;;;;2073793;28;20081;-57
2023/10/19 03:00:20;;;;;;;56.65;38.33;;;;;;;;;;2066296;28;20046;-57
2023/10/19 03:01:24;;;;;;;59.63;37.15;;;;;;;;;;2065649;28;20042;-57
2023/10/19 03:02:26;;;;;;;64.43;38.28;;;;;;;;;;2073667;28;20050;-57
2023/10/19 03:03:30;;;;;;;55.17;33.88;;;;;;;;;;2074859;28;20065;-57
2023/10/19 03:04:35;;;;;;;54.90;36.33;;;;;;;;;;2074667;28;20054;-57
2023/10/19 03:05:36;;;;;;;57.35;36.78;;;;;;;;;;2074951;28;20041;-57
2023/10/19 03:06:36;;;;;;;56.88;36.45;;;;;;;;;;2074240;28;20041;-58
2023/10/19 03:07:38;;;;;;;57.53;37.08;;;;;;;;;;2073837;28;20041;-58
2023/10/19 03:08:39;;;;;;;56.72;35.83;;;;;;;;;;2074231;28;20064;-57
2023/10/19 03:09:48;;;;;;;54.33;36.45;;;;;;;;;;2073559;28;20048;-57
2023/10/19 03:11:03;;;;;;;56.63;36.55;;;;;;;;;;2074931;28;20046;-57
2023/10/19 03:12:05;;;;;;;56.95;36.47;;;;;;;;;;2074441;28;20494;-57
2023/10/19 03:13:06;;;;;;;57.13;36.40;;;;;;;;;;2066228;28;20391;-58
2023/10/19 03:14:07;;;;;;;57.45;36.65;;;;;;;;;;2074242;28;20034;-58
2023/10/19 03:15:08;;;;;;;58.50;36.72;;;;;;;;;;2074965;28;20406;-57
2023/10/19 03:16:09;;;;;;;61.00;38.10;;;;;;;;;;2074814;28;20069;-57
2023/10/19 03:17:10;;;;;;;56.88;35.95;;;;;;;;;;2074437;28;20049;-57
2023/10/19 03:18:11;;;;;;;60.38;35.85;;;;;;;;;;2074803;28;20482;-58
2023/10/19 03:19:15;;;;;;;54.50;36.88;;;;;;;;;;2074454;28;20056;-58
2023/10/19 03:20:17;;;;;;;57.55;36.80;;;;;;;;;;2073599;28;20433;-58
2023/10/19 03:21:19;;;;;;;54.72;35.60;;;;;;;;;;2065587;28;20049;-57
2023/10/19 03:22:20;;;;;;;51.75;34.67;;;;;;;;;;2066060;28;20034;-58
2023/10/19 03:23:21;;;;;;;51.13;35.03;;;;;;;;;;2074328;28;20037;-58
2023/10/19 03:25:58;;;;;;;52.83;34.50;;;;;;;;;;2074788;28;20041;-58
2023/10/19 03:26:59;;;;;;;51.78;33.03;;;;;;;;;;2075072;28;20036;-58
2023/10/19 03:28:10;;;;;;;52.40;35.28;;;;;;;;;;2074849;28;20033;-57
2023/10/19 03:29:14;;;;;;;53.88;35.05;;;;;;;;;;2074121;28;20049;-57
2023/10/19 03:30:18;;;;;;;53.65;33.85;;;;;;;;;;2074469;28;20402;-57
2023/10/19 03:31:20;;;;;;;50.83;30.42;;;;;;;;;;2074404;28;20053;-57
2023/10/19 03:32:28;;;;;;;46.50;27.80;;;;;;;;;;2074752;28;20034;-57
2023/10/19 03:33:29;;;;;;;53.22;33.50;;;;;;;;;;2073607;28;20046;-57
2023/10/19 03:34:32;;;;;;;49.80;31.15;;;;;;;;;;2074178;28;20060;-57
2023/10/19 03:35:34;;;;;;;48.38;32.80;;;;;;;;;;2073838;28;20121;-57
2023/10/19 03:36:36;;;;;;;50.80;32.10;;;;;;;;;;2066030;28;20045;-57
2023/10/19 03:37:37;;;;;;;46.53;31.42;;;;;;;;;;2066112;28;20406;-57
2023/10/19 03:38:39;;;;;;;47.92;33.20;;;;;;;;;;2066118;28;20069;-57
2023/10/19 03:39:41;;;;;;;50.50;32.60;;;;;;;;;;2065687;28;20039;-57
2023/10/19 03:40:46;;;;;;;52.60;33.55;;;;;;;;;;2065916;28;20431;-57
2023/10/19 03:41:49;;;;;;;55.47;33.63;;;;;;;;;;2074190;28;20402;-57
2023/10/19 03:42:54;;;;;;;43.95;29.58;;;;;;;;;;2073760;28;20068;-57
2023/10/19 03:43:57;;;;;;;49.00;33.65;;;;;;;;;;2066415;28;20030;-57
2023/10/19 03:44:59;;;;;;;50.88;34.08;;;;;;;;;;2073478;28;20409;-57
2023/10/19 03:47:44;;;;;;;48.13;31.25;;;;;;;;;;2073918;28;20395;-57
2023/10/19 03:48:46;;;;;;;49.42;31.95;;;;;;;;;;2073767;28;20049;-57
2023/10/19 03:49:47;;;;;;;46.90;33.05;;;;;;;;;;2074192;28;20045;-58
2023/10/19 03:50:51;;;;;;;47.10;31.23;;;;;;;;;;2073595;28;20049;-57
2023/10/19 03:51:58;;;;;;;51.90;34.83;;;;;;;;;;2074197;28;20493;-57
2023/10/19 03:52:59;;;;;;;47.78;31.02;;;;;;;;;;2073946;28;20045;-57
2023/10/19 03:54:01;;;;;;;51.30;33.90;;;;;;;;;;2073307;28;20057;-58
2023/10/19 03:55:02;;;;;;;52.50;33.05;;;;;;;;;;2073917;28;20040;-57
2023/10/19 03:56:05;;;;;;;51.50;32.42;;;;;;;;;;2065238;28;20081;-57
2023/10/19 03:57:10;;;;;;;53.38;35.55;;;;;;;;;;2065983;28;20494;-57
2023/10/19 03:58:12;;;;;;;52.85;34.15;;;;;;;;;;2073780;28;20379;-57
2023/10/19 03:59:13;;;;;;;56.42;36.65;;;;;;;;;;2073440;28;20057;-58
2023/10/19 04:00:24;;;;;;;49.60;34.90;;;;;;;;;;2073121;28;20046;-57
2023/10/19 04:01:25;;;;;;;49.05;32.22;;;;;;;;;;2074442;28;20042;-57
2023/10/19 04:02:34;;;;;;;52.88;34.47;;;;;;;;;;2073685;28;20029;-58
2023/10/19 04:03:36;;;;;;;52.88;33.58;;;;;;;;;;2074303;28;20049;-57
2023/10/19 04:04:39;;;;;;;50.35;32.97;;;;;;;;;;2074433;28;20041;-57
2023/10/19 04:05:41;;;;;;;50.55;34.15;;;;;;;;;;2074617;28;20034;-57
2023/10/19 04:06:47;;;;;;;51.47;29.15;;;;;;;;;;2074446;28;20398;-57
2023/10/19 04:07:50;;;;;;;52.03;32.95;;;;;;;;;;2074585;28;20040;-57
2023/10/19 04:08:51;;;;;;;51.88;33.92;;;;;;;;;;2074478;28;20030;-58
2023/10/19 04:11:08;;;;;;;55.72;34.92;;;;;;;;;;2074471;28;20140;-57
2023/10/19 04:12:10;;;;;;;54.60;33.88;;;;;;;;;;2074598;28;20042;-58
2023/10/19 04:13:12;;;;;;;50.72;33.17;;;;;;;;;;2074400;28;20033;-58
2023/10/19 04:14:15;;;;;;;47.95;31.98;;;;;;;;;;2074301;28;20044;-57
2023/10/19 04:15:16;;;;;;;49.42;33.17;;;;;;;;;;2074081;28;20041;-57
2023/10/19 04:16:17;;;;;;;50.60;32.95;;;;;;;;;;2074128;28;20054;-57
2023/10/19 04:17:21;;;;;;;47.47;34.72;;;;;;;;;;2073846;28;20050;-57
2023/10/19 04:18:25;;;;;;;45.13;32.40;;;;;;;;;;2073683;28;20048;-58
2023/10/19 04:19:28;;;;;;;51.97;35.13;;;;;;;;;;2073797;28;20481;-57
2023/10/19 04:20:30;;;;;;;43.42;28.77;;;;;;;;;;2074210;28;20058;-57
2023/10/19 04:21:30;;;;;;;42.85;28.80;;;;;;;;;;2074245;28;20034;-58
2023/10/19 04:22:31;;;;;;;49.63;30.88;;;;;;;;;;2074288;28;20474;-57
2023/10/19 04:23:34;;;;;;;49.38;31.85;;;;;;;;;;2074456;28;20057;-57
2023/10/19 04:24:35;;;;;;;46.75;28.25;;;;;;;;;;2074005;28;20042;-57
2023/10/19 04:25:36;;;;;;;47.28;32.08;;;;;;;;;;2074441;28;20058;-57
2023/10/19 04:26:37;;;;;;;47.08;30.77;;;;;;;;;;2074012;28;20569;-57
2023/10/19 04:27:42;;;;;;;46.78;28.90;;;;;;;;;;2073958;28;20049;-57
2023/10/19 04:28:49;;;;;;;46.40;32.05;;;;;;;;;;2074282;28;20038;-57
2023/10/19 04:29:50;;;;;;;46.08;32.05;;;;;;;;;;2074093;28;20037;-57
2023/10/19 04:30:51;;;;;;;44.72;29.02;;;;;;;;;;2074383;28;20034;-58
2023/10/19 04:31:54;;;;;;;45.05;28.65;;;;;;;;;;2074244;28;20038;-57
2023/10/19 04:32:57;;;;;;;47.38;30.65;;;;;;;;;;2074310;28;20474;-57
2023/10/19 04:33:58;;;;;;;50.72;34.17;;;;;;;;;;2074481;28;20034;-58
2023/10/19 04:34:59;;;;;;;48.45;31.50;;;;;;;;;;2074502;28;20026;-55
2023/10/19 04:36:00;;;;;;;47.03;29.45;;;;;;;;;;2074492;28;20033;-58
2023/10/19 04:37:03;;;;;;;46.90;31.15;;;;;;;;;;2074284;28;20508;-58
2023/10/19 04:38:06;;;;;;;40.63;27.38;;;;;;;;;;2073921;28;20077;-57
2023/10/19 04:39:11;;;;;;;43.47;28.73;;;;;;;;;;2073960;28;20049;-57
2023/10/19 04:40:12;;;;;;;46.00;31.70;;;;;;;;;;2074313;28;20057;-57
2023/10/19 04:41:13;;;;;;;41.08;28.80;;;;;;;;;;2073930;28;20486;-57
2023/10/19 04:42:14;;;;;;;48.72;34.28;;;;;;;;;;2074332;28;20042;-58
2023/10/19 04:43:16;;;;;;;47.50;32.72;;;;;;;;;;2074197;28;20041;-57
2023/10/19 04:44:17;;;;;;;46.22;30.27;;;;;;;;;;2074111;28;20038;-57
2023/10/19 04:45:17;;;;;;;45.53;31.85;;;;;;;;;;2074249;28;20463;-57
2023/10/19 04:46:18;;;;;;;42.20;31.05;;;;;;;;;;2073478;28;20057;-58
2023/10/19 04:47:19;;;;;;;42.03;30.75;;;;;;;;;;2074256;28;20065;-57
2023/10/19 04:48:20;;;;;;;45.55;31.65;;;;;;;;;;2074559;28;20033;-57
2023/10/19 04:49:22;;;;;;;42.35;30.30;;;;;;;;;;2074238;28;20037;-57
2023/10/19 04:50:22;;;;;;;45.22;31.25;;;;;;;;;;2074211;28;20398;-57
2023/10/19 04:51:24;;;;;;;44.78;31.67;;;;;;;;;;2073834;28;20080;-57
2023/10/19 04:52:24;;;;;;;44.63;31.45;;;;;;;;;;2074256;28;20038;-58
2023/10/19 04:53:25;;;;;;;47.85;31.90;;;;;;;;;;2074379;28;20034;-58
2023/10/19 04:54:27;;;;;;;47.20;31.20;;;;;;;;;;2073969;28;20061;-64
2023/10/19 04:55:31;;;;;;;43.40;31.52;;;;;;;;;;2074393;28;20029;-58
2023/10/19 04:56:32;;;;;;;45.22;32.47;;;;;;;;;;2073598;28;20414;-58
2023/10/19 04:57:32;;;;;;;46.92;32.08;;;;;;;;;;2074407;28;20030;-57
2023/10/19 04:58:33;;;;;;;51.40;33.70;;;;;;;;;;2074069;28;20498;-58
2023/10/19 04:59:34;;;;;;;45.88;29.98;;;;;;;;;;2073992;28;20042;-57
2023/10/19 05:00:34;;;;;;;47.50;33.40;;;;;;;;;;2073978;28;20069;-57
2023/10/19 05:01:35;;;;;;;43.45;31.25;;;;;;;;;;2074119;28;20042;-57
2023/10/19 05:02:36;;;;;;;45.72;31.63;;;;;;;;;;2074086;28;20034;-58
2023/10/19 05:03:37;;;;;;;50.83;34.50;;;;;;;;;;2074309;28;20048;-58
2023/10/19 05:04:38;;;;;;;49.80;33.65;;;;;;;;;;2074117;28;20405;-58
2023/10/19 05:05:38;;;;;;;52.92;33.65;;;;;;;;;;2073986;28;20025;-58
2023/10/19 05:06:39;;;;;;;44.38;31.52;;;;;;;;;;2074069;28;20037;-58
2023/10/19 05:07:40;;;;;;;45.95;31.42;;;;;;;;;;2074144;28;20030;-58
2023/10/19 05:08:40;;;;;;;45.45;30.48;;;;;;;;;;2073810;28;20049;-58
2023/10/19 05:09:41;;;;;;;42.83;29.80;;;;;;;;;;2072768;28;20069;-58
2023/10/19 05:10:42;;;;;;;42.40;29.48;;;;;;;;;;2072821;28;20038;-57
2023/10/19 05:11:44;;;;;;;45.65;32.05;;;;;;;;;;2073787;28;20489;-57
2023/10/19 05:12:44;;;;;;;44.30;30.20;;;;;;;;;;2073981;28;20041;-58
2023/10/19 05:13:45;;;;;;;40.42;29.83;;;;;;;;;;2073647;28;20029;-57
2023/10/19 05:14:46;;;;;;;44.83;30.42;;;;;;;;;;2073503;28;20064;-58
2023/10/19 05:15:47;;;;;;;38.63;26.27;;;;;;;;;;2073965;28;20367;-58
2023/10/19 05:16:48;;;;;;;41.08;30.00;;;;;;;;;;2073101;28;20065;-57
2023/10/19 05:17:49;;;;;;;43.40;31.10;;;;;;;;;;2073523;28;20033;-57
2023/10/19 05:18:50;;;;;;;42.70;26.77;;;;;;;;;;2073916;28;20364;-58
2023/10/19 05:19:50;;;;;;;45.05;31.33;;;;;;;;;;2074153;28;20033;-57
2023/10/19 05:20:57;;;;;;;43.83;29.85;;;;;;;;;;2073827;28;20029;-58
2023/10/19 05:21:59;;;;;;;39.53;28.83;;;;;;;;;;2073652;28;20386;-58
2023/10/19 05:23:00;;;;;;;40.40;29.15;;;;;;;;;;2073108;28;20052;-58
2023/10/19 05:24:00;;;;;;;40.53;29.02;;;;;;;;;;2073585;28;20041;-58
2023/10/19 05:25:01;;;;;;;43.78;30.52;;;;;;;;;;2073670;28;20034;-58
2023/10/19 05:26:06;;;;;;;38.42;29.13;;;;;;;;;;2073890;28;20125;-58
2023/10/19 05:27:09;;;;;;;39.90;28.48;;;;;;;;;;2073935;28;20386;-57
2023/10/19 05:28:10;;;;;;;39.40;28.55;;;;;;;;;;2074090;28;20050;-58
2023/10/19 05:29:12;;;;;;;38.40;27.67;;;;;;;;;;2073510;28;20042;-57
2023/10/19 05:30:13;;;;;;;31.55;22.38;;;;;;;;;;2073889;28;20414;-57
2023/10/19 05:31:15;;;;;;;38.17;27.33;;;;;;;;;;2073534;28;20070;-57
2023/10/19 05:32:15;;;;;;;35.85;26.50;;;;;;;;;;2073937;28;20037;-57
2023/10/19 05:33:20;;;;;;;41.30;30.35;;;;;;;;;;2074220;28;20038;-57
2023/10/19 05:34:21;;;;;;;39.38;27.40;;;;;;;;;;2073921;28;20041;-57
2023/10/19 05:35:23;;;;;;;34.92;24.70;;;;;;;;;;2073959;28;20068;-58
2023/10/19 05:36:25;;;;;;;34.92;25.67;;;;;;;;;;2073769;28;20050;-58
2023/10/19 05:37:29;;;;;;;38.38;26.98;;;;;;;;;;2074020;28;20037;-57
2023/10/19 05:38:31;;;;;;;37.60;27.30;;;;;;;;;;2073984;28;20037;-58
2023/10/19 05:39:33;;;;;;;34.17;25.73;;;;;;;;;;2073990;28;20030;-57
2023/10/19 05:40:35;;;;;;;38.38;28.10;;;;;;;;;;2073807;28;20122;-57
2023/10/19 05:41:37;;;;;;;37.53;26.23;;;;;;;;;;2073687;28;20045;-57
2023/10/19 05:42:38;;;;;;;41.20;27.25;;;;;;;;;;2072858;28;20042;-57
2023/10/19 05:43:39;;;;;;;33.88;25.77;;;;;;;;;;2073568;28;20034;-58
2023/10/19 05:44:39;;;;;;;36.65;27.83;;;;;;;;;;2073689;28;20036;-57
2023/10/19 05:45:40;;;;;;;37.00;27.80;;;;;;;;;;2074241;28;20034;-57
2023/10/19 05:46:41;;;;;;;40.90;28.73;;;;;;;;;;2073979;28;20041;-57
2023/10/19 05:47:43;;;;;;;40.92;29.35;;;;;;;;;;2073756;28;20045;-57
2023/10/19 05:48:45;;;;;;;39.05;29.20;;;;;;;;;;2073909;28;20050;-57
2023/10/19 05:49:46;;;;;;;39.85;28.58;;;;;;;;;;2073179;28;20389;-57
2023/10/19 05:50:46;;;;;;;44.25;29.20;;;;;;;;;;2073785;28;20038;-57
2023/10/19 05:51:48;;;;;;;42.20;29.13;;;;;;;;;;2073965;28;20054;-58
2023/10/19 05:52:48;;;;;;;37.47;27.63;;;;;;;;;;2073475;28;20041;-58
2023/10/19 05:53:50;;;;;;;40.17;29.02;;;;;;;;;;2073478;28;20061;-58
2023/10/19 05:54:53;;;;;;;38.60;28.65;;;;;;;;;;2073378;28;20390;-58
2023/10/19 05:55:54;;;;;;;41.97;30.00;;;;;;;;;;2073189;28;20033;-58
2023/10/19 05:56:55;;;;;;;36.20;26.73;;;;;;;;;;2072349;28;20045;-58
2023/10/19 05:57:56;;;;;;;41.13;28.63;;;;;;;;;;2073871;28;20037;-58
2023/10/19 05:58:57;;;;;;;38.30;28.75;;;;;;;;;;2072856;28;20046;-58
2023/10/19 05:59:57;;;;;;;40.22;28.27;;;;;;;;;;2072900;28;20038;-58
2023/10/19 06:00:59;;;;;;;38.40;25.80;;;;;;;;;;2073960;28;20458;-58
2023/10/19 06:01:59;;;;;;;38.33;28.42;;;;;;;;;;2073844;28;20038;-58
2023/10/19 06:03:00;;;;;;;37.83;28.00;;;;;;;;;;2073210;28;20037;-58
2023/10/19 06:04:02;;;;;;;40.67;28.40;;;;;;;;;;2073880;28;20041;-58
2023/10/19 06:05:04;;;;;;;35.13;25.13;;;;;;;;;;2073783;28;20496;-57
2023/10/19 06:06:06;;;;;;;35.20;25.27;;;;;;;;;;2073494;28;20050;-58
2023/10/19 06:07:06;;;;;;;36.78;27.58;;;;;;;;;;2073816;28;20057;-58
2023/10/19 06:08:08;;;;;;;37.30;28.20;;;;;;;;;;2073615;28;20053;-58
2023/10/19 06:09:09;;;;;;;37.80;27.15;;;;;;;;;;2073692;28;20049;-58
2023/10/19 06:10:16;;;;;;;39.13;29.60;;;;;;;;;;2073372;28;20367;-58
2023/10/19 06:11:18;;;;;;;38.80;29.33;;;;;;;;;;2073320;28;20057;-58
2023/10/19 06:12:18;;;;;;;41.13;28.27;;;;;;;;;;2073782;28;20034;-58
2023/10/19 06:13:20;;;;;;;38.38;27.33;;;;;;;;;;2073834;28;20054;-57
2023/10/19 06:14:20;;;;;;;41.92;27.05;;;;;;;;;;2073273;28;20049;-58
2023/10/19 06:15:23;;;;;;;36.75;27.77;;;;;;;;;;2073780;28;20045;-57
2023/10/19 06:16:23;;;;;;;32.60;24.88;;;;;;;;;;2073291;28;20531;-57
2023/10/19 06:17:24;;;;;;;29.58;20.67;;;;;;;;;;2073818;28;20038;-58